Time;durP1;ratioP1;P1;durP2;ratioP2;P2;SDS_P1;SDS_P2;PMS_P1;PMS_P2;Temp;Humidity;BMP_temperature;BMP_pressure;BME280_temperature;BME280_humidity;BME280_pressure;Samples;Min_cycle;Max_cycle;Signal;HPM_P1;HPM_P2
2022/07/22 00:01:34;;;;;;;9.98;2.38;;;;;;;;;;5042115;28;20404;-75
2022/07/22 00:04:02;;;;;;;7.90;2.22;;;;;;;;;;5074361;28;20043;-75
2022/07/22 00:06:28;;;;;;;10.43;2.38;;;;;;;;;;5075445;28;20052;-76
2022/07/22 00:08:55;;;;;;;7.75;2.30;;;;;;;;;;5074611;28;20093;-75
2022/07/22 00:11:21;;;;;;;4.85;1.98;;;;;;;;;;5074889;28;20144;-76
2022/07/22 00:13:47;;;;;;;8.35;2.45;;;;;;;;;;5074744;28;20047;-76
2022/07/22 00:16:13;;;;;;;10.05;2.15;;;;;;;;;;5074049;28;20067;-76
2022/07/22 00:18:39;;;;;;;8.32;2.40;;;;;;;;;;5074940;28;20056;-76
2022/07/22 00:21:05;;;;;;;8.77;2.00;;;;;;;;;;5058000;28;20485;-75
2022/07/22 00:23:31;;;;;;;9.55;2.10;;;;;;;;;;5074406;28;20044;-76
2022/07/22 00:25:57;;;;;;;9.43;2.20;;;;;;;;;;5057856;28;20559;-76
2022/07/22 00:28:23;;;;;;;7.07;1.95;;;;;;;;;;5079121;28;20047;-76
2022/07/22 00:30:50;;;;;;;6.80;2.30;;;;;;;;;;5074847;28;20044;-75
2022/07/22 00:33:16;;;;;;;7.07;2.00;;;;;;;;;;5057310;28;20044;-75
2022/07/22 00:35:42;;;;;;;9.85;2.38;;;;;;;;;;5074834;28;20477;-76
2022/07/22 00:38:08;;;;;;;10.07;2.30;;;;;;;;;;5059831;28;20055;-76
2022/07/22 00:40:34;;;;;;;7.70;2.00;;;;;;;;;;5074716;28;20051;-76
2022/07/22 00:43:00;;;;;;;6.88;2.00;;;;;;;;;;5057026;28;20118;-76
2022/07/22 00:45:26;;;;;;;10.45;2.47;;;;;;;;;;5057913;28;20040;-76
2022/07/22 00:47:52;;;;;;;9.88;2.33;;;;;;;;;;5074098;28;20396;-76
2022/07/22 00:50:19;;;;;;;9.15;2.38;;;;;;;;;;5073946;28;20046;-76
2022/07/22 00:52:46;;;;;;;6.90;2.30;;;;;;;;;;5074336;28;20496;-76
2022/07/22 00:55:12;;;;;;;8.15;2.33;;;;;;;;;;5073977;28;20073;-76
2022/07/22 00:57:38;;;;;;;8.77;2.10;;;;;;;;;;5074023;28;20121;-76
2022/07/22 01:00:06;;;;;;;6.45;1.88;;;;;;;;;;5084722;28;20515;-76
2022/07/22 01:02:32;;;;;;;9.55;1.90;;;;;;;;;;5074361;28;20116;-76
2022/07/22 01:04:58;;;;;;;8.15;2.10;;;;;;;;;;5074041;28;20043;-75
2022/07/22 01:07:24;;;;;;;5.70;1.90;;;;;;;;;;5073732;28;20048;-75
2022/07/22 01:09:50;;;;;;;13.55;2.20;;;;;;;;;;5082074;28;20480;-74
2022/07/22 01:12:16;;;;;;;8.30;2.00;;;;;;;;;;5059628;28;20089;-76
2022/07/22 01:14:43;;;;;;;8.00;2.30;;;;;;;;;;5073856;28;20036;-76
2022/07/22 01:17:09;;;;;;;11.40;2.28;;;;;;;;;;5073485;28;20062;-75
2022/07/22 01:19:36;;;;;;;9.63;2.30;;;;;;;;;;5073982;28;20520;-75
2022/07/22 01:22:02;;;;;;;7.82;2.15;;;;;;;;;;5057033;28;20131;-76
2022/07/22 01:24:28;;;;;;;8.25;2.03;;;;;;;;;;5073614;28;20505;-75
2022/07/22 01:26:55;;;;;;;9.88;2.30;;;;;;;;;;5075453;28;20674;-76
2022/07/22 01:29:21;;;;;;;9.90;2.60;;;;;;;;;;5059914;28;20503;-76
2022/07/22 01:31:47;;;;;;;8.57;2.03;;;;;;;;;;5066418;28;20122;-75
2022/07/22 01:34:13;;;;;;;9.13;2.10;;;;;;;;;;5076437;28;20043;-76
2022/07/22 01:36:39;;;;;;;7.63;2.40;;;;;;;;;;5070836;28;20122;-76
2022/07/22 01:39:05;;;;;;;9.43;2.58;;;;;;;;;;5062589;28;20560;-76
2022/07/22 01:41:32;;;;;;;6.97;2.50;;;;;;;;;;5073818;28;20050;-76
2022/07/22 01:43:58;;;;;;;6.25;2.30;;;;;;;;;;5073686;28;20423;-75
2022/07/22 01:46:24;;;;;;;8.88;2.50;;;;;;;;;;5056916;28;20040;-75
2022/07/22 01:48:53;;;;;;;7.22;2.10;;;;;;;;;;5073559;28;20051;-76
2022/07/22 01:51:20;;;;;;;4.57;1.75;;;;;;;;;;5073542;28;20079;-76
2022/07/22 01:53:46;;;;;;;8.30;2.55;;;;;;;;;;5073332;28;20028;-76
2022/07/22 01:56:12;;;;;;;7.20;2.03;;;;;;;;;;5073512;28;20032;-76
2022/07/22 01:58:38;;;;;;;6.60;1.90;;;;;;;;;;5075807;28;20036;-75
2022/07/22 02:01:05;;;;;;;6.85;1.75;;;;;;;;;;5076720;28;20047;-75
2022/07/22 02:03:31;;;;;;;7.35;1.67;;;;;;;;;;5084674;28;20081;-74
2022/07/22 02:05:57;;;;;;;5.15;1.88;;;;;;;;;;5078579;28;20044;-75
2022/07/22 02:08:23;;;;;;;7.03;1.95;;;;;;;;;;5086256;28;20039;-75
2022/07/22 02:10:49;;;;;;;7.93;2.00;;;;;;;;;;5065307;28;20092;-76
2022/07/22 02:13:15;;;;;;;6.47;2.20;;;;;;;;;;5088436;28;20498;-76
2022/07/22 02:15:41;;;;;;;5.55;1.65;;;;;;;;;;5074520;28;20028;-75
2022/07/22 02:18:11;;;;;;;5.45;1.98;;;;;;;;;;5090981;28;20035;-76
2022/07/22 02:20:37;;;;;;;8.32;1.90;;;;;;;;;;5085650;28;20048;-76
2022/07/22 02:23:04;;;;;;;9.10;2.35;;;;;;;;;;5090292;28;20126;-76
2022/07/22 02:25:30;;;;;;;7.50;1.98;;;;;;;;;;5065784;28;20321;-75
2022/07/22 02:27:56;;;;;;;7.80;2.25;;;;;;;;;;5094080;28;20460;-75
2022/07/22 02:30:22;;;;;;;9.32;2.35;;;;;;;;;;5091360;28;20052;-75
2022/07/22 02:32:48;;;;;;;7.95;2.30;;;;;;;;;;5075875;28;20369;-76
2022/07/22 02:35:14;;;;;;;6.50;1.98;;;;;;;;;;5094007;28;20092;-76
2022/07/22 02:37:40;;;;;;;9.23;2.17;;;;;;;;;;5067271;28;20033;-76
2022/07/22 02:40:07;;;;;;;8.45;2.60;;;;;;;;;;5057852;28;20481;-76
2022/07/22 02:42:33;;;;;;;11.23;2.60;;;;;;;;;;5076186;28;20055;-76
2022/07/22 02:45:00;;;;;;;8.68;2.65;;;;;;;;;;5059643;28;20047;-76
2022/07/22 02:47:26;;;;;;;8.90;2.72;;;;;;;;;;5076094;28;20055;-76
2022/07/22 02:49:52;;;;;;;7.25;2.30;;;;;;;;;;5060170;28;20067;-76
2022/07/22 02:52:18;;;;;;;9.27;2.80;;;;;;;;;;5075966;28;20036;-76
2022/07/22 02:54:44;;;;;;;6.15;2.15;;;;;;;;;;5076580;28;20040;-76
2022/07/22 02:57:11;;;;;;;6.10;2.38;;;;;;;;;;5076338;28;20049;-76
2022/07/22 02:59:37;;;;;;;7.78;2.70;;;;;;;;;;5073973;28;20067;-75
2022/07/22 03:02:03;;;;;;;6.05;2.30;;;;;;;;;;5094340;28;20051;-76
2022/07/22 03:04:29;;;;;;;5.53;2.28;;;;;;;;;;5081937;28;20454;-76
2022/07/22 03:06:55;;;;;;;6.18;2.28;;;;;;;;;;5059330;28;20062;-73
2022/07/22 03:09:21;;;;;;;11.68;2.40;;;;;;;;;;5061602;28;20045;-73
2022/07/22 03:11:47;;;;;;;7.47;2.35;;;;;;;;;;5076349;28;20067;-73
2022/07/22 03:14:14;;;;;;;5.80;2.08;;;;;;;;;;5079570;28;20149;-73
2022/07/22 03:16:40;;;;;;;5.10;1.83;;;;;;;;;;5069421;28;20050;-73
2022/07/22 03:19:06;;;;;;;6.72;2.28;;;;;;;;;;5070077;28;20045;-73
2022/07/22 03:21:32;;;;;;;5.18;1.92;;;;;;;;;;5075665;28;20038;-73
2022/07/22 03:23:58;;;;;;;5.40;2.17;;;;;;;;;;5075789;28;20039;-73
2022/07/22 03:26:25;;;;;;;6.57;2.20;;;;;;;;;;5075436;28;20043;-73
2022/07/22 03:28:51;;;;;;;9.88;2.60;;;;;;;;;;5076126;28;20489;-74
2022/07/22 03:31:18;;;;;;;7.50;2.40;;;;;;;;;;5075321;28;20036;-74
2022/07/22 03:33:44;;;;;;;6.47;2.30;;;;;;;;;;5059058;28;20388;-73
2022/07/22 03:36:11;;;;;;;9.55;2.30;;;;;;;;;;5075248;28;20137;-73
2022/07/22 03:38:37;;;;;;;8.00;2.40;;;;;;;;;;5074934;28;20036;-73
2022/07/22 03:41:03;;;;;;;7.68;2.38;;;;;;;;;;5075855;28;20396;-73
2022/07/22 03:43:30;;;;;;;9.43;2.30;;;;;;;;;;5075493;28;20493;-73
2022/07/22 03:45:56;;;;;;;8.32;2.33;;;;;;;;;;5084035;28;20100;-73
2022/07/22 03:48:22;;;;;;;7.38;2.10;;;;;;;;;;5077128;28;20127;-73
2022/07/22 03:50:49;;;;;;;11.18;2.47;;;;;;;;;;5058815;28;20044;-73
2022/07/22 03:53:16;;;;;;;9.05;2.30;;;;;;;;;;5059284;28;20505;-73
2022/07/22 03:55:42;;;;;;;5.65;1.83;;;;;;;;;;5074570;28;20039;-74
2022/07/22 03:58:08;;;;;;;9.88;2.20;;;;;;;;;;5072199;28;20497;-73
2022/07/22 04:00:34;;;;;;;7.85;2.45;;;;;;;;;;5072290;28;20366;-74
2022/07/22 04:03:00;;;;;;;7.50;2.28;;;;;;;;;;5055731;28;20050;-73
2022/07/22 04:05:26;;;;;;;11.05;2.70;;;;;;;;;;5090134;28;20052;-73
2022/07/22 04:07:52;;;;;;;8.70;2.22;;;;;;;;;;5072970;28;20040;-73
2022/07/22 04:10:19;;;;;;;8.35;3.17;;;;;;;;;;5058747;28;20044;-73
2022/07/22 04:12:45;;;;;;;8.65;2.22;;;;;;;;;;5074872;28;20114;-73
2022/07/22 04:15:11;;;;;;;8.82;2.45;;;;;;;;;;5075362;28;20556;-73
2022/07/22 04:17:37;;;;;;;6.72;2.45;;;;;;;;;;5074253;28;20032;-74
2022/07/22 04:20:03;;;;;;;5.13;2.40;;;;;;;;;;5074712;28;20048;-73
2022/07/22 04:22:30;;;;;;;6.43;2.20;;;;;;;;;;5058211;28;20434;-73
2022/07/22 04:24:56;;;;;;;8.90;2.70;;;;;;;;;;5058260;28;20032;-73
2022/07/22 04:27:23;;;;;;;4.95;2.03;;;;;;;;;;5076490;28;20035;-73
2022/07/22 04:29:49;;;;;;;6.70;2.10;;;;;;;;;;5074222;28;20101;-73
2022/07/22 04:32:15;;;;;;;5.30;2.13;;;;;;;;;;5055299;28;20044;-73
2022/07/22 04:34:41;;;;;;;7.15;1.80;;;;;;;;;;5073616;28;20176;-73
2022/07/22 04:37:08;;;;;;;3.63;1.70;;;;;;;;;;5075797;28;20102;-73
2022/07/22 04:39:34;;;;;;;4.25;1.80;;;;;;;;;;5076589;28;20135;-72
2022/07/22 04:42:00;;;;;;;5.78;1.80;;;;;;;;;;5086662;28;20040;-73
2022/07/22 04:44:26;;;;;;;6.32;1.92;;;;;;;;;;5075856;28;20036;-73
2022/07/22 04:46:52;;;;;;;4.97;1.83;;;;;;;;;;5060113;28;20401;-73
2022/07/22 04:49:18;;;;;;;4.90;1.73;;;;;;;;;;5073119;28;20495;-71
2022/07/22 04:51:44;;;;;;;4.10;1.60;;;;;;;;;;5062546;28;20511;-71
2022/07/22 04:54:10;;;;;;;5.38;1.85;;;;;;;;;;5084022;28;20503;-72
2022/07/22 04:56:37;;;;;;;4.95;1.50;;;;;;;;;;5090204;28;20058;-71
2022/07/22 04:59:03;;;;;;;5.30;1.55;;;;;;;;;;5073369;28;20070;-71
2022/07/22 05:01:29;;;;;;;5.93;1.95;;;;;;;;;;5087298;28;20515;-71
2022/07/22 05:03:55;;;;;;;6.55;1.55;;;;;;;;;;5093356;28;20036;-71
2022/07/22 05:06:21;;;;;;;6.25;1.60;;;;;;;;;;5093958;28;20044;-71
2022/07/22 05:08:47;;;;;;;5.47;2.00;;;;;;;;;;5066416;28;20083;-72
2022/07/22 05:11:13;;;;;;;4.82;2.00;;;;;;;;;;5074089;28;20493;-71
2022/07/22 05:13:39;;;;;;;5.60;2.28;;;;;;;;;;5057601;28;20186;-71
2022/07/22 05:16:06;;;;;;;5.18;1.60;;;;;;;;;;5073878;28;20101;-71
2022/07/22 05:18:33;;;;;;;5.13;2.17;;;;;;;;;;5072939;28;20189;-72
2022/07/22 05:20:59;;;;;;;6.93;1.80;;;;;;;;;;5073607;28;20052;-71
2022/07/22 05:23:25;;;;;;;6.15;1.77;;;;;;;;;;5073225;28;20123;-71
2022/07/22 05:25:51;;;;;;;4.97;1.83;;;;;;;;;;5070760;28;20093;-71
2022/07/22 05:28:19;;;;;;;8.35;1.50;;;;;;;;;;5091062;28;20046;-72
2022/07/22 05:30:45;;;;;;;6.40;1.85;;;;;;;;;;5081406;28;20048;-72
2022/07/22 05:33:11;;;;;;;6.20;1.67;;;;;;;;;;5089144;28;20442;-72
2022/07/22 05:35:37;;;;;;;5.47;2.10;;;;;;;;;;5090178;28;20032;-78
2022/07/22 05:38:05;;;;;;;4.50;1.88;;;;;;;;;;5106487;28;20051;-72
2022/07/22 05:40:31;;;;;;;4.13;1.90;;;;;;;;;;5088598;28;20043;-72
2022/07/22 05:42:57;;;;;;;5.90;1.90;;;;;;;;;;5086321;28;20046;-72
2022/07/22 05:45:23;;;;;;;5.47;1.75;;;;;;;;;;5102326;28;20032;-72
2022/07/22 05:47:50;;;;;;;7.40;2.05;;;;;;;;;;5088694;28;20127;-73
2022/07/22 05:50:16;;;;;;;4.63;1.88;;;;;;;;;;5089569;28;20043;-74
2022/07/22 05:52:42;;;;;;;7.10;1.60;;;;;;;;;;5074210;28;20036;-72
2022/07/22 05:55:09;;;;;;;11.85;2.00;;;;;;;;;;5064611;28;20090;-72
2022/07/22 05:57:36;;;;;;;3.92;1.63;;;;;;;;;;5065768;28;20051;-71
2022/07/22 06:00:03;;;;;;;4.55;1.95;;;;;;;;;;5070941;28;20040;-72
2022/07/22 06:02:29;;;;;;;6.82;1.90;;;;;;;;;;5063561;28;20040;-71
2022/07/22 06:04:55;;;;;;;5.60;1.77;;;;;;;;;;5058755;28;20430;-71
2022/07/22 06:07:21;;;;;;;6.22;1.70;;;;;;;;;;5068604;28;20035;-72
2022/07/22 06:09:48;;;;;;;5.68;1.85;;;;;;;;;;5043389;28;20041;-72
2022/07/22 06:12:14;;;;;;;5.85;1.92;;;;;;;;;;5070751;28;20043;-71
2022/07/22 06:14:40;;;;;;;4.05;1.50;;;;;;;;;;5076402;28;20043;-71
2022/07/22 06:17:06;;;;;;;6.97;1.60;;;;;;;;;;5077003;28;20044;-72
2022/07/22 06:19:32;;;;;;;7.78;1.70;;;;;;;;;;5076421;28;20060;-71
2022/07/22 06:21:58;;;;;;;5.20;1.67;;;;;;;;;;5102755;28;20063;-72
2022/07/22 06:24:25;;;;;;;6.88;1.67;;;;;;;;;;5060270;28;20054;-71
2022/07/22 06:26:51;;;;;;;5.15;1.50;;;;;;;;;;5060474;28;20075;-72
2022/07/22 06:29:17;;;;;;;8.35;1.58;;;;;;;;;;5100539;28;20122;-71
2022/07/22 06:31:43;;;;;;;6.47;1.60;;;;;;;;;;5076961;28;20133;-72
2022/07/22 06:34:09;;;;;;;6.97;2.13;;;;;;;;;;5066436;28;20085;-72
2022/07/22 06:36:35;;;;;;;7.68;1.48;;;;;;;;;;5076551;28;20059;-71
2022/07/22 06:39:01;;;;;;;6.70;1.90;;;;;;;;;;5076524;28;20519;-72
2022/07/22 06:41:27;;;;;;;6.95;1.55;;;;;;;;;;5076708;28;20113;-71
2022/07/22 06:43:54;;;;;;;5.25;1.45;;;;;;;;;;5059569;28;20061;-72
2022/07/22 06:46:20;;;;;;;7.78;1.55;;;;;;;;;;5076433;28;20048;-71
2022/07/22 06:48:46;;;;;;;5.97;1.50;;;;;;;;;;5063064;28;20044;-74
2022/07/22 06:51:12;;;;;;;8.43;1.50;;;;;;;;;;5075822;28;20040;-74
2022/07/22 06:53:38;;;;;;;5.85;1.50;;;;;;;;;;5068882;28;20036;-74
2022/07/22 06:56:04;;;;;;;5.53;1.50;;;;;;;;;;5069130;28;20067;-76
2022/07/22 06:58:30;;;;;;;5.43;1.30;;;;;;;;;;5056840;28;20041;-76
2022/07/22 07:00:56;;;;;;;4.15;1.17;;;;;;;;;;5064628;28;20036;-76
2022/07/22 07:03:25;;;;;;;3.67;1.25;;;;;;;;;;5094835;28;20122;-74
2022/07/22 07:05:51;;;;;;;6.68;1.25;;;;;;;;;;5065758;28;20047;-74
2022/07/22 07:08:17;;;;;;;6.03;1.27;;;;;;;;;;5077789;28;20032;-74
2022/07/22 07:10:43;;;;;;;4.70;1.10;;;;;;;;;;5074307;28;20043;-74
2022/07/22 07:13:09;;;;;;;7.25;1.35;;;;;;;;;;5059470;28;20036;-74
2022/07/22 07:15:35;;;;;;;3.88;1.20;;;;;;;;;;5076113;28;20049;-74
2022/07/22 07:18:02;;;;;;;6.13;1.50;;;;;;;;;;5072918;28;20036;-74
2022/07/22 07:20:28;;;;;;;5.20;1.20;;;;;;;;;;5075769;28;20054;-74
2022/07/22 07:22:55;;;;;;;4.75;0.90;;;;;;;;;;5074860;28;20420;-74
2022/07/22 07:25:21;;;;;;;5.35;1.30;;;;;;;;;;5076294;28;20036;-74
2022/07/22 07:27:47;;;;;;;6.10;1.30;;;;;;;;;;5099526;28;20119;-74
2022/07/22 07:30:13;;;;;;;5.25;1.10;;;;;;;;;;5075877;28;20115;-74
2022/07/22 07:32:39;;;;;;;5.18;1.38;;;;;;;;;;5074986;28;20063;-74
2022/07/22 07:35:06;;;;;;;2.60;0.98;;;;;;;;;;5058359;28;20040;-74
2022/07/22 07:37:32;;;;;;;6.43;1.30;;;;;;;;;;5075554;28;20040;-74
2022/07/22 07:39:58;;;;;;;5.53;1.30;;;;;;;;;;5092008;28;20115;-74
2022/07/22 07:42:25;;;;;;;3.55;1.00;;;;;;;;;;5076029;28;20044;-74
2022/07/22 07:44:51;;;;;;;4.15;1.13;;;;;;;;;;5075400;28;20032;-74
2022/07/22 07:47:20;;;;;;;6.57;1.20;;;;;;;;;;5075792;28;20481;-74
2022/07/22 07:49:46;;;;;;;6.03;1.40;;;;;;;;;;5074765;28;20048;-74
2022/07/22 07:52:12;;;;;;;4.80;1.42;;;;;;;;;;5075306;28;20491;-74
2022/07/22 07:54:39;;;;;;;4.22;1.60;;;;;;;;;;5075372;28;20115;-74
2022/07/22 07:57:06;;;;;;;6.15;1.23;;;;;;;;;;5074826;28;20032;-74
2022/07/22 07:59:32;;;;;;;6.00;1.58;;;;;;;;;;5075485;28;20404;-74
2022/07/22 08:01:58;;;;;;;3.83;1.10;;;;;;;;;;5075013;28;20039;-74
2022/07/22 08:04:24;;;;;;;4.05;1.27;;;;;;;;;;5074646;28;20075;-74
2022/07/22 08:06:50;;;;;;;3.95;1.20;;;;;;;;;;5094252;28;20046;-74
2022/07/22 08:09:16;;;;;;;4.38;1.20;;;;;;;;;;5061398;28;20404;-74
2022/07/22 08:11:42;;;;;;;3.55;1.20;;;;;;;;;;5084635;28;20407;-74
2022/07/22 08:14:08;;;;;;;3.40;1.27;;;;;;;;;;5096384;28;20028;-74
2022/07/22 08:16:35;;;;;;;4.13;1.33;;;;;;;;;;5079845;28;20385;-74
2022/07/22 08:19:01;;;;;;;3.28;1.20;;;;;;;;;;5072824;28;20108;-74
2022/07/22 08:21:27;;;;;;;4.90;1.40;;;;;;;;;;5077081;28;20043;-74
2022/07/22 08:23:53;;;;;;;6.00;1.30;;;;;;;;;;5092253;28;20047;-74
2022/07/22 08:26:19;;;;;;;2.85;1.10;;;;;;;;;;5037748;28;20044;-74
2022/07/22 08:28:45;;;;;;;4.78;1.10;;;;;;;;;;5061019;28;20431;-74
2022/07/22 08:31:11;;;;;;;5.63;1.13;;;;;;;;;;5062017;28;20043;-74
2022/07/22 08:33:37;;;;;;;5.00;1.27;;;;;;;;;;5060757;28;20515;-74
2022/07/22 08:36:04;;;;;;;4.25;1.30;;;;;;;;;;5059510;28;20036;-74
2022/07/22 08:38:30;;;;;;;5.10;1.85;;;;;;;;;;5075602;28;20040;-75
2022/07/22 08:40:56;;;;;;;4.13;1.30;;;;;;;;;;5067681;28;20488;-74
2022/07/22 08:43:23;;;;;;;4.68;1.38;;;;;;;;;;5065804;28;20548;-74
2022/07/22 08:45:49;;;;;;;2.78;1.05;;;;;;;;;;5063381;28;20682;-74
2022/07/22 08:48:15;;;;;;;3.78;1.00;;;;;;;;;;5066459;28;20076;-74
2022/07/22 08:50:42;;;;;;;4.07;1.17;;;;;;;;;;5056019;28;20048;-74
2022/07/22 08:53:12;;;;;;;5.57;1.65;;;;;;;;;;5077988;28;20027;-73
2022/07/22 08:55:45;;;;;;;3.47;1.10;;;;;;;;;;5077134;28;20075;-73
2022/07/22 08:58:11;;;;;;;8.38;1.23;;;;;;;;;;5069932;28;20142;-74
2022/07/22 09:00:38;;;;;;;4.32;1.10;;;;;;;;;;5064340;28;20047;-75
2022/07/22 09:03:17;;;;;;;4.47;1.30;;;;;;;;;;5085169;28;20138;-74
2022/07/22 09:05:43;;;;;;;3.88;1.00;;;;;;;;;;5065679;28;20047;-75
2022/07/22 09:08:09;;;;;;;3.50;1.30;;;;;;;;;;5048883;28;20059;-74
2022/07/22 09:10:36;;;;;;;4.15;1.23;;;;;;;;;;5067830;28;20127;-74
2022/07/22 09:13:03;;;;;;;3.40;1.10;;;;;;;;;;5082251;28;20101;-80
2022/07/22 09:15:31;;;;;;;3.35;1.00;;;;;;;;;;5073521;28;20097;-81
2022/07/22 09:17:58;;;;;;;4.97;1.25;;;;;;;;;;5072637;28;20043;-77
2022/07/22 09:20:24;;;;;;;5.32;1.33;;;;;;;;;;5073595;28;20090;-79
2022/07/22 09:22:51;;;;;;;2.88;1.00;;;;;;;;;;5055466;28;20043;-80
2022/07/22 09:25:18;;;;;;;4.93;1.33;;;;;;;;;;5072745;28;20046;-79
2022/07/22 09:27:44;;;;;;;5.68;1.20;;;;;;;;;;5068067;28;20036;-79
2022/07/22 09:30:24;;;;;;;6.38;1.25;;;;;;;;;;5070116;28;20028;-80
2022/07/22 09:32:50;;;;;;;5.05;1.17;;;;;;;;;;5055156;28;20032;-80
2022/07/22 09:35:19;;;;;;;3.47;1.05;;;;;;;;;;5060356;28;20036;-78
2022/07/22 09:38:05;;;;;;;2.80;1.00;;;;;;;;;;5076713;28;20434;-80
2022/07/22 09:40:34;;;;;;;3.75;1.00;;;;;;;;;;5068253;28;20120;-80
2022/07/22 09:43:01;;;;;;;5.25;1.00;;;;;;;;;;5070991;28;20574;-79
2022/07/22 09:45:28;;;;;;;1.80;1.10;;;;;;;;;;5073052;28;20048;-76
2022/07/22 09:47:55;;;;;;;6.63;1.40;;;;;;;;;;5080772;28;20043;-79
2022/07/22 09:50:22;;;;;;;4.60;1.20;;;;;;;;;;5076951;28;20546;-78
2022/07/22 09:52:49;;;;;;;4.40;1.40;;;;;;;;;;5075072;28;20166;-79
2022/07/22 09:55:17;;;;;;;4.20;1.02;;;;;;;;;;5068860;28;20938;-79
2022/07/22 09:57:43;;;;;;;3.50;1.30;;;;;;;;;;5056095;28;20404;-66
2022/07/22 10:00:10;;;;;;;3.00;1.25;;;;;;;;;;5077872;28;20051;-67
2022/07/22 10:03:03;;;;;;;6.07;1.25;;;;;;;;;;5082677;28;20037;-66
2022/07/22 10:05:31;;;;;;;3.30;1.20;;;;;;;;;;5085956;28;20469;-69
2022/07/22 10:07:57;;;;;;;5.88;1.30;;;;;;;;;;5070934;28;20388;-67
2022/07/22 10:10:28;;;;;;;3.35;0.95;;;;;;;;;;5077357;28;20054;-67
2022/07/22 10:12:55;;;;;;;3.47;1.10;;;;;;;;;;5092530;28;20037;-68
2022/07/22 10:15:22;;;;;;;4.05;1.10;;;;;;;;;;5066206;28;20040;-67
2022/07/22 10:17:50;;;;;;;4.18;0.98;;;;;;;;;;5090683;28;20039;-67
2022/07/22 10:20:20;;;;;;;3.38;0.90;;;;;;;;;;5092607;28;20056;-68
2022/07/22 10:22:46;;;;;;;5.05;1.05;;;;;;;;;;5094977;28;20040;-67
2022/07/22 10:25:14;;;;;;;2.83;0.90;;;;;;;;;;5075644;28;20085;-68
2022/07/22 10:27:59;;;;;;;2.70;1.00;;;;;;;;;;5066717;28;20035;-68
2022/07/22 10:30:29;;;;;;;2.58;0.95;;;;;;;;;;5056055;28;20094;-68
2022/07/22 10:33:02;;;;;;;2.60;0.90;;;;;;;;;;5093612;28;20058;-67
2022/07/22 10:35:28;;;;;;;1.58;0.80;;;;;;;;;;5093860;28;20043;-67
2022/07/22 10:37:56;;;;;;;2.67;0.95;;;;;;;;;;5094040;28;20105;-67
2022/07/22 10:40:24;;;;;;;2.42;0.90;;;;;;;;;;5093744;28;20468;-67
2022/07/22 10:43:08;;;;;;;2.85;0.90;;;;;;;;;;5094235;28;20039;-68
2022/07/22 10:45:34;;;;;;;2.58;0.90;;;;;;;;;;5075998;28;20089;-68
2022/07/22 10:48:09;;;;;;;5.18;1.13;;;;;;;;;;5092187;28;20039;-68
2022/07/22 10:50:38;;;;;;;2.65;0.90;;;;;;;;;;5093739;28;20052;-68
2022/07/22 10:53:05;;;;;;;3.50;0.90;;;;;;;;;;5093754;28;20121;-68
2022/07/22 10:55:31;;;;;;;2.88;1.08;;;;;;;;;;5072981;28;20388;-67
2022/07/22 10:57:57;;;;;;;3.25;1.55;;;;;;;;;;5093174;28;20446;-67
2022/07/22 11:00:23;;;;;;;4.88;1.10;;;;;;;;;;5075966;28;20032;-68
2022/07/22 11:02:49;;;;;;;3.55;1.10;;;;;;;;;;5075461;28;20044;-68
2022/07/22 11:05:25;;;;;;;3.40;0.90;;;;;;;;;;5075718;28;20415;-68
2022/07/22 11:07:51;;;;;;;4.30;1.00;;;;;;;;;;5093421;28;20040;-68
2022/07/22 11:10:19;;;;;;;3.47;0.90;;;;;;;;;;5075037;28;20040;-68
2022/07/22 11:12:46;;;;;;;3.03;1.00;;;;;;;;;;5094093;28;20485;-68
2022/07/22 11:15:12;;;;;;;4.22;1.08;;;;;;;;;;5074146;28;20047;-67
2022/07/22 11:17:39;;;;;;;2.00;1.10;;;;;;;;;;5094781;28;20053;-68
2022/07/22 11:20:06;;;;;;;3.10;0.93;;;;;;;;;;5098405;28;20054;-67
2022/07/22 11:22:33;;;;;;;2.35;0.90;;;;;;;;;;5093728;28;20050;-68
2022/07/22 11:25:05;;;;;;;2.85;0.90;;;;;;;;;;5075191;28;20093;-68
2022/07/22 11:27:31;;;;;;;2.50;0.80;;;;;;;;;;5098311;28;20570;-68
2022/07/22 11:29:57;;;;;;;4.38;1.00;;;;;;;;;;5097791;28;21352;-68
2022/07/22 11:32:25;;;;;;;2.92;0.80;;;;;;;;;;5092967;28;20048;-68
2022/07/22 11:34:51;;;;;;;4.25;0.88;;;;;;;;;;5093473;28;20035;-68
2022/07/22 11:37:19;;;;;;;3.45;0.90;;;;;;;;;;5073431;28;20028;-68
2022/07/22 11:39:46;;;;;;;2.28;1.00;;;;;;;;;;5074445;28;20063;-68
2022/07/22 11:42:12;;;;;;;3.50;0.90;;;;;;;;;;5091852;28;20558;-68
2022/07/22 11:44:39;;;;;;;2.92;1.10;;;;;;;;;;5074472;28;20075;-68
2022/07/22 11:47:06;;;;;;;4.20;0.90;;;;;;;;;;5092117;28;20050;-68
2022/07/22 11:49:33;;;;;;;3.08;0.90;;;;;;;;;;5078572;28;20050;-70
2022/07/22 11:52:00;;;;;;;5.60;1.48;;;;;;;;;;5057951;28;20120;-72
2022/07/22 11:54:26;;;;;;;6.78;2.17;;;;;;;;;;5073618;28;20066;-71
2022/07/22 11:56:53;;;;;;;13.77;4.68;;;;;;;;;;5073904;28;20515;-70
2022/07/22 11:59:19;;;;;;;5.68;1.60;;;;;;;;;;5056566;28;20180;-71
2022/07/22 12:01:46;;;;;;;4.47;1.30;;;;;;;;;;5074998;28;20067;-70
2022/07/22 12:04:13;;;;;;;3.60;0.98;;;;;;;;;;5073812;28;20048;-70
2022/07/22 12:06:41;;;;;;;2.55;0.80;;;;;;;;;;5074400;28;20048;-70
2022/07/22 12:09:07;;;;;;;2.15;0.73;;;;;;;;;;5073803;28;20043;-70
2022/07/22 12:11:37;;;;;;;4.18;0.80;;;;;;;;;;5073603;28;20046;-70
2022/07/22 12:14:08;;;;;;;1.70;0.80;;;;;;;;;;5065269;28;20549;-70
2022/07/22 12:16:34;;;;;;;3.45;0.77;;;;;;;;;;5092868;28;20054;-74
2022/07/22 12:19:04;;;;;;;4.72;0.90;;;;;;;;;;5091504;28;20044;-69
2022/07/22 12:21:31;;;;;;;2.65;0.77;;;;;;;;;;5073270;28;20504;-69
2022/07/22 12:24:00;;;;;;;2.58;0.90;;;;;;;;;;5091584;28;20047;-69
2022/07/22 12:26:45;;;;;;;13.48;2.45;;;;;;;;;;5073410;28;20048;-69
2022/07/22 12:29:17;;;;;;;9.90;2.42;;;;;;;;;;5075032;28;20044;-69
2022/07/22 12:31:44;;;;;;;3.72;0.98;;;;;;;;;;5090219;28;20032;-69
2022/07/22 12:34:11;;;;;;;1.55;0.60;;;;;;;;;;5071081;28;20090;-67
2022/07/22 12:36:37;;;;;;;53.08;4.13;;;;;;;;;;5071070;28;20061;-69
2022/07/22 12:39:32;;;;;;;2.33;0.60;;;;;;;;;;5072167;28;20060;-69
2022/07/22 12:41:58;;;;;;;3.63;0.85;;;;;;;;;;5069898;28;20048;-69
2022/07/22 12:44:26;;;;;;;1.98;0.60;;;;;;;;;;5063040;28;20040;-69
2022/07/22 12:46:53;;;;;;;2.72;0.80;;;;;;;;;;5085524;28;20054;-69
2022/07/22 12:49:20;;;;;;;2.25;0.60;;;;;;;;;;5070972;28;20036;-69
2022/07/22 12:52:06;;;;;;;2.53;0.60;;;;;;;;;;5073086;28;20039;-69
2022/07/22 12:54:32;;;;;;;2.20;0.60;;;;;;;;;;5072688;28;20118;-69
2022/07/22 12:56:58;;;;;;;1.42;0.60;;;;;;;;;;5072930;28;20039;-69
2022/07/22 12:59:24;;;;;;;1.92;0.80;;;;;;;;;;5070243;28;20120;-70
2022/07/22 13:01:50;;;;;;;2.65;0.73;;;;;;;;;;5073933;28;20043;-69
2022/07/22 13:04:17;;;;;;;3.15;0.88;;;;;;;;;;5055644;28;20136;-69
2022/07/22 13:06:43;;;;;;;1.80;0.75;;;;;;;;;;5073182;28;20489;-69
2022/07/22 13:09:09;;;;;;;2.47;0.80;;;;;;;;;;5070490;28;20067;-69
2022/07/22 13:11:39;;;;;;;3.03;1.00;;;;;;;;;;5090771;28;20051;-69
2022/07/22 13:14:06;;;;;;;2.53;0.95;;;;;;;;;;5073238;28;20024;-69
2022/07/22 13:16:33;;;;;;;3.67;0.90;;;;;;;;;;5078322;28;20037;-69
2022/07/22 13:18:59;;;;;;;7.05;1.25;;;;;;;;;;5073011;28;20540;-69
2022/07/22 13:21:25;;;;;;;3.60;0.80;;;;;;;;;;5089075;28;20516;-70
2022/07/22 13:23:51;;;;;;;3.13;1.02;;;;;;;;;;5073663;28;20051;-69
2022/07/22 13:26:17;;;;;;;2.75;0.90;;;;;;;;;;5056534;28;20467;-69
2022/07/22 13:28:43;;;;;;;2.42;0.93;;;;;;;;;;5099240;28;20050;-69
2022/07/22 13:31:09;;;;;;;3.65;0.80;;;;;;;;;;5072108;28;20044;-69
2022/07/22 13:33:35;;;;;;;1.52;0.80;;;;;;;;;;5072161;28;20036;-69
2022/07/22 13:36:02;;;;;;;4.70;0.90;;;;;;;;;;5090370;28;20096;-69
2022/07/22 13:38:28;;;;;;;3.38;0.80;;;;;;;;;;5069841;28;20037;-68
2022/07/22 13:40:54;;;;;;;2.45;0.82;;;;;;;;;;5070853;28;20054;-69
2022/07/22 13:43:22;;;;;;;2.97;0.80;;;;;;;;;;5089800;28;20040;-75
2022/07/22 13:45:48;;;;;;;2.08;0.90;;;;;;;;;;5051573;28;20060;-69
2022/07/22 13:48:17;;;;;;;2.00;0.82;;;;;;;;;;5088931;28;20028;-69
2022/07/22 13:50:43;;;;;;;2.72;0.90;;;;;;;;;;5071606;28;20052;-68
2022/07/22 13:53:09;;;;;;;3.45;0.68;;;;;;;;;;5066603;28;20036;-68
2022/07/22 13:55:35;;;;;;;2.92;0.70;;;;;;;;;;5081835;28;20396;-68
2022/07/22 13:58:01;;;;;;;2.78;0.90;;;;;;;;;;5078390;28;20036;-69
2022/07/22 14:00:27;;;;;;;4.22;1.00;;;;;;;;;;5070204;28;20036;-69
2022/07/22 14:02:53;;;;;;;3.05;0.88;;;;;;;;;;5084875;28;20085;-69
2022/07/22 14:05:19;;;;;;;3.20;0.80;;;;;;;;;;5056834;28;20408;-69
2022/07/22 14:07:45;;;;;;;1.77;0.80;;;;;;;;;;5077616;28;20036;-68
2022/07/22 14:10:13;;;;;;;3.30;0.90;;;;;;;;;;5085015;28;20032;-68
2022/07/22 14:12:39;;;;;;;3.35;0.90;;;;;;;;;;5071522;28;20074;-68
2022/07/22 14:15:07;;;;;;;2.55;0.70;;;;;;;;;;5090207;28;20036;-68
2022/07/22 14:17:33;;;;;;;2.00;0.80;;;;;;;;;;5072253;28;20074;-69
2022/07/22 14:19:59;;;;;;;3.00;0.90;;;;;;;;;;5078946;28;20132;-68
2022/07/22 14:22:25;;;;;;;3.35;1.00;;;;;;;;;;5062564;28;20048;-69
2022/07/22 14:24:52;;;;;;;2.90;0.95;;;;;;;;;;5066392;28;20036;-69
2022/07/22 14:27:18;;;;;;;2.03;0.80;;;;;;;;;;5089275;28;20111;-69
2022/07/22 14:29:44;;;;;;;2.08;0.95;;;;;;;;;;5075767;28;20100;-71
2022/07/22 14:32:10;;;;;;;3.17;0.90;;;;;;;;;;5073113;28;20040;-68
2022/07/22 14:34:36;;;;;;;2.10;0.90;;;;;;;;;;5093480;28;20443;-68
2022/07/22 14:37:02;;;;;;;3.53;1.02;;;;;;;;;;5055154;28;20049;-68
2022/07/22 14:39:28;;;;;;;3.90;1.10;;;;;;;;;;5067636;28;20045;-68
2022/07/22 14:41:54;;;;;;;3.22;1.10;;;;;;;;;;5079898;28;20047;-68